• Join FlightAware (Why Join?)
  • Login
  • US Flag 
11:55AM EDT


 

Airport Tracker/Info


-or-


 

Live Flight TrackerFlight Track Log ✈ VH-ZFY ✈ 26-May-2013 ✈ YSBK / BWU - YSBK / BWU

Flight Track Log - Related Links

Times and Time Zones

All times are in EDT time to prevent confusion due to time zone crossing. See the VH-ZFY flight status page for this flight to view local times or setup timezone preferences in your user account.

Time Position Orientation Groundspeed Altitude Reporting Facility
EDT Latitude Longitude Course Direction KTS MPH feet Rate Location/Type
01:06AM -33.7170 151.0871 39° Northeast 100 115 1,900  Level Aus ATC (RADAR)
01:07AM -33.7047 151.0990 39° Northeast 96 110 2,100 60 Climbing Aus ATC (RADAR)
01:08AM -33.6969 151.1227 68° East 102 117 2,000  Descending Aus ATC (RADAR)
01:08AM -33.6920 151.1407 72° East 99 114 2,100 120 Climbing Aus ATC (RADAR)
01:09AM -33.6896 151.1738 85° East 94 108 2,200 120 Climbing Aus ATC (RADAR)
01:10AM -33.6886 151.1869 85° East 93 107 2,300  Climbing Aus ATC (RADAR)
01:10AM -33.6867 151.2063 83° East 96 110 2,200  Descending Aus ATC (RADAR)
01:11AM -33.6863 151.2391 89° East 96 110 2,300 60 Climbing Aus ATC (RADAR)
01:12AM -33.6922 151.2548 115° Southeast 103 119 2,300 -420 Level Aus ATC (RADAR)
01:12AM -33.7034 151.2758 123° Southeast 99 114 1,800 -600 Descending Aus ATC (RADAR)
01:13AM -33.7092 151.2874 121° Southeast 95 109 1,600 -180 Descending Aus ATC (RADAR)
01:14AM -33.7263 151.3083 135° Southeast 95 109 1,600  Level Aus ATC (RADAR)
01:14AM -33.7367 151.3120 163° South 94 108 1,600  Level Aus ATC (RADAR)
01:15AM -33.7295 151.3190 39° Northeast 96 110 1,600  Level Aus ATC (RADAR)
01:15AM -33.7383 151.3048 233° Southwest 108 124 1,600 60 Level Aus ATC (RADAR)
01:16AM -33.7620 151.2880 210° Southwest 109 125 1,700 -120 Climbing Aus ATC (RADAR)
01:17AM -33.7780 151.2782 207° Southwest 110 127 1,500  Descending Aus ATC (RADAR)
01:17AM -33.7998 151.2633 210° Southwest 107 123 1,700  Climbing Aus ATC (RADAR)
01:18AM -33.8088 151.2578 207° Southwest 107 123 1,500 -120 Descending Aus ATC (RADAR)
01:18AM -33.8257 151.2442 214° Southwest 107 123 1,600 60 Climbing Aus ATC (RADAR)
01:19AM -33.8438 151.2242 223° Southwest 103 119 1,600  Level Aus ATC (RADAR)
01:20AM -33.8522 151.2143 225° Southwest 86 99 1,600  Level Aus ATC (RADAR)
01:20AM -33.8609 151.2204 150° Southeast 82 94 1,600  Level Aus ATC (RADAR)
01:21AM -33.8484 151.2182 352° North 79 91 1,600  Level Aus ATC (RADAR)
01:22AM -33.8556 151.2219 157° South 85 98 1,600 60 Level Aus ATC (RADAR)
01:22AM -33.8572 151.2199 225° Southwest 81 93 1,700 60 Climbing Aus ATC (RADAR)
01:23AM -33.8518 151.2320 62° Northeast 93 107 1,700 -120 Level Aus ATC (RADAR)
01:23AM -33.8428 151.2488 57° Northeast 100 115 1,600 -60 Descending Aus ATC (RADAR)
01:24AM -33.8243 151.2774 52° Northeast 103 119 1,600  Level Aus ATC (RADAR)
01:25AM -33.8133 151.2826 21° North 103 119 1,600 60 Level Aus ATC (RADAR)
01:26AM -33.7950 151.2899 18° North 105 121 1,700 60 Climbing Aus ATC (RADAR)
01:26AM -33.7762 151.2970 17° North 106 122 1,700  Level Aus ATC (RADAR)
01:27AM -33.7595 151.3018 13° North 107 123 1,700  Level Aus ATC (RADAR)
01:27AM -33.7499 151.3045 13° North 108 124 1,700  Level Aus ATC (RADAR)
01:30AM -33.7208 151.2056 289° West 1,500 -60 Descending Aus ATC (Calculated)
01:32AM -33.6650 151.0164 289° West  Level FlightAware Approximate